Time;durP1;ratioP1;P1;durP2;ratioP2;P2;SDS_P1;SDS_P2;PMS_P1;PMS_P2;Temp;Humidity;BMP_temperature;BMP_pressure;BME280_temperature;BME280_humidity;BME280_pressure;Samples;Min_cycle;Max_cycle;Signal;HPM_P1;HPM_P2
2021/04/15 00:00:23;;;;;;;6.65;3.70;;;6.00;99.90;;;;;;4952410;29;20042;-89
2021/04/15 00:02:48;;;;;;;4.35;3.38;;;6.00;99.90;;;;;;4952448;29;20085;-90
2021/04/15 00:05:24;;;;;;;4.90;3.42;;;6.50;99.90;;;;;;4951601;29;20504;-90
2021/04/15 00:07:49;;;;;;;5.22;3.38;;;5.70;99.90;;;;;;4952589;29;20058;-89
2021/04/15 00:10:15;;;;;;;6.97;3.88;;;5.70;99.90;;;;;;4953057;28;20063;-89
2021/04/15 00:12:41;;;;;;;6.47;3.50;;;5.70;99.90;;;;;;4955747;29;20484;-91
2021/04/15 00:15:11;;;;;;;4.60;3.40;;;5.70;99.90;;;;;;4956061;29;20090;-90
2021/04/15 00:17:36;;;;;;;5.72;3.67;;;5.70;99.90;;;;;;4955879;29;20039;-91
2021/04/15 00:20:04;;;;;;;6.35;3.28;;;5.90;99.90;;;;;;4955031;29;20019;-90
2021/04/15 00:22:30;;;;;;;4.68;3.15;;;5.60;99.90;;;;;;4956108;29;20400;-89
2021/04/15 00:24:56;;;;;;;4.28;3.40;;;5.70;99.90;;;;;;4955178;29;20043;-90
2021/04/15 00:27:21;;;;;;;6.72;3.83;;;5.70;99.90;;;;;;4956295;29;20074;-90
2021/04/15 00:29:47;;;;;;;5.97;3.92;;;5.50;99.90;;;;;;4955358;29;20031;-89
2021/04/15 00:32:13;;;;;;;6.50;4.15;;;5.50;99.90;;;;;;4954687;29;20036;-89
2021/04/15 00:34:39;;;;;;;6.28;3.80;;;5.20;99.90;;;;;;4938551;29;20034;-91
2021/04/15 00:37:04;;;;;;;5.55;3.90;;;5.20;99.90;;;;;;4955564;29;20031;-90
2021/04/15 00:39:30;;;;;;;6.00;3.60;;;5.30;99.90;;;;;;4955526;29;20113;-91
2021/04/15 00:41:55;;;;;;;6.35;3.55;;;5.80;99.90;;;;;;4955458;29;20035;-90
2021/04/15 00:44:21;;;;;;;5.38;3.63;;;5.40;99.90;;;;;;4955631;29;20407;-90
2021/04/15 00:46:47;;;;;;;6.57;3.33;;;5.30;99.90;;;;;;4955049;29;20461;-91
2021/04/15 00:49:32;;;;;;;5.80;3.35;;;5.20;99.90;;;;;;4955450;29;20023;-89
2021/04/15 00:52:15;;;;;;;4.90;3.58;;;5.20;99.90;;;;;;4955690;29;20023;-91
2021/04/15 00:54:46;;;;;;;5.35;3.40;;;5.10;99.90;;;;;;4955396;29;20035;-90
2021/04/15 00:57:24;;;;;;;5.30;3.88;;;5.00;99.90;;;;;;4954717;29;20039;-91
2021/04/15 00:59:50;;;;;;;4.95;3.80;;;5.00;99.90;;;;;;4954543;29;20023;-90
2021/04/15 01:02:19;;;;;;;6.55;3.63;;;5.00;99.90;;;;;;4954731;29;20472;-88
2021/04/15 01:04:47;;;;;;;6.45;3.80;;;5.00;99.90;;;;;;4954625;29;20047;-89
2021/04/15 01:07:12;;;;;;;5.57;3.50;;;4.90;99.90;;;;;;4954429;29;20451;-90
2021/04/15 01:09:38;;;;;;;5.15;3.60;;;4.60;99.90;;;;;;4955263;29;20118;-91
2021/04/15 01:12:12;;;;;;;7.43;3.90;;;4.70;99.90;;;;;;4954876;29;20109;-90
2021/04/15 01:14:41;;;;;;;4.68;3.28;;;4.80;99.90;;;;;;4954406;29;20031;-90
2021/04/15 01:17:15;;;;;;;4.78;3.90;;;4.80;99.90;;;;;;4954810;29;20058;-91
2021/04/15 01:20:15;;;;;;;4.80;3.60;;;4.70;99.90;;;;;;4951631;29;20039;-90
2021/04/15 01:23:23;;;;;;;5.93;3.60;;;4.60;99.90;;;;;;4950265;28;20065;-90
2021/04/15 01:26:13;;;;;;;4.13;3.50;;;4.70;99.90;;;;;;4911576;29;20047;-89
2021/04/15 01:29:23;;;;;;;5.68;3.65;;;4.50;99.90;;;;;;4911108;29;20616;-91
2021/04/15 01:32:14;;;;;;;7.53;3.85;;;4.70;99.90;;;;;;4910568;29;20526;-90
2021/04/15 01:34:43;;;;;;;5.63;4.20;;;4.70;99.90;;;;;;4914522;29;20035;-90
2021/04/15 01:37:31;;;;;;;5.25;3.75;;;4.60;99.90;;;;;;4894375;29;20479;-90
2021/04/15 01:40:26;;;;;;;5.45;4.15;;;4.50;99.90;;;;;;4910092;29;20050;-90
2021/04/15 01:43:16;;;;;;;6.45;3.85;;;4.40;99.90;;;;;;4909314;29;20047;-90
2021/04/15 01:45:47;;;;;;;5.03;4.40;;;4.50;99.90;;;;;;4913482;29;20052;-89
2021/04/15 01:48:37;;;;;;;6.85;4.13;;;4.60;99.90;;;;;;4909802;29;20036;-89
2021/04/15 01:51:09;;;;;;;4.97;4.03;;;4.60;99.90;;;;;;4909911;29;20131;-92
2021/04/15 01:53:41;;;;;;;6.13;4.10;;;4.10;99.90;;;;;;4913439;29;20039;-91
2021/04/15 01:56:24;;;;;;;6.35;4.22;;;4.30;99.90;;;;;;4924474;29;20069;-89
2021/04/15 01:59:03;;;;;;;7.00;3.92;;;4.50;99.90;;;;;;4952051;29;20019;-89
2021/04/15 02:01:37;;;;;;;5.95;4.22;;;4.30;99.90;;;;;;4953017;29;20030;-90
2021/04/15 02:04:06;;;;;;;6.43;4.18;;;4.60;99.90;;;;;;4953691;28;20443;-89
2021/04/15 02:06:35;;;;;;;5.65;4.25;;;4.20;99.90;;;;;;4954015;28;20041;-90
2021/04/15 02:09:06;;;;;;;4.88;3.78;;;4.20;99.90;;;;;;4953402;29;20034;-90
2021/04/15 02:11:50;;;;;;;6.65;3.97;;;4.20;99.90;;;;;;4953966;28;20166;-91
2021/04/15 02:14:24;;;;;;;5.40;3.97;;;4.20;99.90;;;;;;4938918;29;20038;-90
2021/04/15 02:16:53;;;;;;;5.78;4.22;;;4.30;99.90;;;;;;4953289;29;20023;-90
2021/04/15 02:19:27;;;;;;;5.85;4.15;;;4.10;99.90;;;;;;4954293;29;20016;-91
2021/04/15 02:22:17;;;;;;;4.75;4.10;;;4.10;99.90;;;;;;4952994;28;20491;-91
2021/04/15 02:24:49;;;;;;;6.32;4.20;;;4.10;99.90;;;;;;4954171;28;20451;-92
2021/04/15 02:27:21;;;;;;;5.85;3.45;;;4.20;99.90;;;;;;4953721;29;20106;-91
2021/04/15 02:29:55;;;;;;;5.70;4.10;;;4.30;99.90;;;;;;4953396;28;20114;-93
2021/04/15 02:33:05;;;;;;;6.55;4.38;;;4.30;99.90;;;;;;4953579;28;20023;-92
2021/04/15 02:35:40;;;;;;;7.00;4.13;;;4.20;99.90;;;;;;4941164;29;20034;-92
2021/04/15 02:38:07;;;;;;;5.45;4.03;;;4.10;99.90;;;;;;4953813;29;20033;-91
2021/04/15 02:40:46;;;;;;;6.10;4.07;;;4.60;99.90;;;;;;4954568;29;20027;-92
2021/04/15 02:43:23;;;;;;;4.82;4.13;;;4.00;99.90;;;;;;4953410;28;20114;-91
2021/04/15 02:46:07;;;;;;;5.82;3.80;;;4.00;99.90;;;;;;4953352;28;20468;-92
2021/04/15 02:48:40;;;;;;;5.18;4.07;;;4.00;99.90;;;;;;4952828;28;20027;-92
2021/04/15 02:51:19;;;;;;;8.32;4.10;;;4.30;99.90;;;;;;4953002;28;20042;-92
2021/04/15 02:53:54;;;;;;;7.32;3.97;;;3.90;99.90;;;;;;4954065;29;20038;-93
2021/04/15 02:56:54;;;;;;;5.22;3.70;;;4.10;99.90;;;;;;4951948;29;20137;-92
2021/04/15 03:00:04;;;;;;;6.85;3.90;;;4.00;99.90;;;;;;4939431;29;20024;-92
2021/04/15 03:02:37;;;;;;;8.00;4.43;;;3.90;99.90;;;;;;4919441;29;20457;-92
2021/04/15 03:05:09;;;;;;;7.40;4.25;;;3.80;99.90;;;;;;4932055;29;20052;-92
2021/04/15 03:07:44;;;;;;;5.13;4.00;;;3.90;99.90;;;;;;4933297;29;20032;-92
2021/04/15 03:10:17;;;;;;;5.57;4.10;;;3.90;99.90;;;;;;4931414;29;20110;-92
2021/04/15 03:13:15;;;;;;;6.38;4.22;;;3.80;99.90;;;;;;4931570;29;20027;-92
2021/04/15 03:15:46;;;;;;;5.05;4.18;;;3.60;99.90;;;;;;4959166;23;20050;-85
2021/04/15 03:18:20;;;;;;;6.03;3.92;;;3.70;99.90;;;;;;4995003;28;20064;-85
2021/04/15 03:20:59;;;;;;;5.55;4.40;;;3.70;99.90;;;;;;4977287;28;20056;-85
2021/04/15 03:23:45;;;;;;;5.78;4.13;;;3.70;99.90;;;;;;4991863;28;20026;-86
2021/04/15 03:26:17;;;;;;;5.85;4.35;;;3.80;99.90;;;;;;4974581;28;20114;-85
2021/04/15 03:28:53;;;;;;;6.32;4.80;;;3.70;99.90;;;;;;5004296;28;20168;-86
2021/04/15 03:31:26;;;;;;;6.75;4.50;;;3.70;99.90;;;;;;4994082;28;20026;-85
2021/04/15 03:34:04;;;;;;;6.18;4.57;;;3.50;99.90;;;;;;4975518;28;20042;-85
2021/04/15 03:36:39;;;;;;;7.68;4.88;;;3.40;99.90;;;;;;4994609;28;20030;-84
2021/04/15 03:39:15;;;;;;;6.68;4.07;;;3.30;99.90;;;;;;4976930;28;20033;-84
2021/04/15 03:41:44;;;;;;;6.50;4.43;;;3.50;99.90;;;;;;4994040;28;20084;-85
2021/04/15 03:44:19;;;;;;;6.57;4.47;;;3.60;99.90;;;;;;4974714;28;20066;-85
2021/04/15 03:46:52;;;;;;;7.85;5.32;;;3.60;99.90;;;;;;5006331;28;20092;-85
2021/04/15 03:49:41;;;;;;;7.57;4.60;;;3.50;99.90;;;;;;4997200;28;20129;-85
2021/04/15 03:52:18;;;;;;;6.47;4.00;;;3.50;99.90;;;;;;4985621;28;20042;-84
2021/04/15 03:54:49;;;;;;;6.88;4.85;;;3.50;99.90;;;;;;4998202;28;20038;-85
2021/04/15 03:57:21;;;;;;;6.72;4.82;;;3.30;99.90;;;;;;4997497;28;20548;-85
2021/04/15 04:00:07;;;;;;;7.40;4.88;;;3.40;99.90;;;;;;4997710;28;20045;-85
2021/04/15 04:02:42;;;;;;;6.68;4.80;;;3.30;99.90;;;;;;4996337;28;20014;-85
2021/04/15 04:05:15;;;;;;;6.20;4.85;;;3.50;99.90;;;;;;4993153;28;20049;-85
2021/04/15 04:07:43;;;;;;;7.15;4.60;;;3.50;99.90;;;;;;5007318;28;20060;-85
2021/04/15 04:10:20;;;;;;;6.45;4.32;;;3.20;99.90;;;;;;4998045;28;20031;-85
2021/04/15 04:12:55;;;;;;;6.82;4.60;;;3.20;99.90;;;;;;4997913;28;20374;-85
2021/04/15 04:15:28;;;;;;;7.28;4.70;;;3.30;99.90;;;;;;4980540;28;20022;-84
2021/04/15 04:18:06;;;;;;;8.32;4.60;;;3.20;99.90;;;;;;4997401;28;20061;-85
2021/04/15 04:20:37;;;;;;;9.25;4.32;;;3.10;99.90;;;;;;4987067;28;20411;-85
2021/04/15 04:23:46;;;;;;;5.60;4.40;;;3.10;99.90;;;;;;4993588;28;20065;-85
2021/04/15 04:26:26;;;;;;;5.25;4.40;;;3.00;99.90;;;;;;4899098;29;20044;-84
2021/04/15 04:29:15;;;;;;;6.78;4.80;;;3.20;99.90;;;;;;4915073;29;20115;-85
2021/04/15 04:31:47;;;;;;;5.60;4.32;;;3.00;99.90;;;;;;4897265;29;20044;-85
2021/04/15 04:34:19;;;;;;;6.00;4.18;;;3.00;99.90;;;;;;4906098;29;20084;-85
2021/04/15 04:36:47;;;;;;;5.88;4.60;;;3.10;99.90;;;;;;4914223;29;20048;-85
2021/04/15 04:39:15;;;;;;;5.95;5.10;;;3.10;99.90;;;;;;4912311;29;20519;-84
2021/04/15 04:42:20;;;;;;;6.97;4.53;;;3.10;99.90;;;;;;4914671;29;20028;-85
2021/04/15 04:44:58;;;;;;;6.13;4.75;;;2.90;99.90;;;;;;4844427;29;20472;-85
2021/04/15 04:48:00;;;;;;;7.75;5.20;;;2.90;99.90;;;;;;4857065;29;20132;-85
2021/04/15 04:50:43;;;;;;;7.32;4.65;;;2.90;99.90;;;;;;4856065;29;20042;-85
2021/04/15 04:53:22;;;;;;;10.73;5.60;;;2.90;99.90;;;;;;4858415;29;20582;-86
2021/04/15 04:56:09;;;;;;;12.27;6.35;;;2.80;99.90;;;;;;4859788;29;20042;-84
2021/04/15 04:58:36;;;;;;;16.13;7.85;;;2.90;99.90;;;;;;4937822;29;20127;-84
2021/04/15 05:01:02;;;;;;;11.43;6.40;;;2.90;99.90;;;;;;4936693;29;20035;-86
2021/04/15 05:03:30;;;;;;;12.98;6.43;;;2.70;99.90;;;;;;4936876;29;20031;-85
2021/04/15 05:06:04;;;;;;;14.63;7.07;;;2.90;99.90;;;;;;4936235;29;20551;-84
2021/04/15 05:08:50;;;;;;;10.70;6.45;;;3.00;99.90;;;;;;4932772;29;20103;-84
2021/04/15 05:11:15;;;;;;;8.10;5.70;;;2.90;99.90;;;;;;4922789;28;20058;-84
2021/04/15 05:13:42;;;;;;;8.57;5.55;;;2.80;99.90;;;;;;4937632;29;20031;-84
2021/04/15 05:16:08;;;;;;;5.95;5.28;;;2.90;99.90;;;;;;4934864;29;20064;-82
2021/04/15 05:18:35;;;;;;;6.10;4.88;;;3.50;99.90;;;;;;4962732;28;20035;-84
2021/04/15 05:21:11;;;;;;;10.80;5.70;;;3.20;99.90;;;;;;4996222;28;20109;-84
2021/04/15 05:23:44;;;;;;;8.23;5.35;;;3.10;99.90;;;;;;4994815;28;20038;-85
2021/04/15 05:26:19;;;;;;;5.75;5.13;;;3.10;99.90;;;;;;4975652;28;20045;-86
2021/04/15 05:28:48;;;;;;;7.68;5.47;;;3.20;99.90;;;;;;5005786;28;20022;-83
2021/04/15 05:31:17;;;;;;;9.52;6.10;;;3.20;99.90;;;;;;4996921;28;20479;-84
2021/04/15 05:33:43;;;;;;;6.95;5.72;;;3.20;99.90;;;;;;4995761;28;20066;-83
2021/04/15 05:36:36;;;;;;;8.63;5.97;;;3.30;99.90;;;;;;4995574;28;20060;-85
2021/04/15 05:39:07;;;;;;;10.70;6.57;;;3.40;99.90;;;;;;4996075;28;20053;-84
2021/04/15 05:41:45;;;;;;;7.88;5.93;;;3.50;99.90;;;;;;4994291;28;20389;-85
2021/04/15 05:44:36;;;;;;;8.38;6.07;;;3.50;99.90;;;;;;4976329;28;20170;-85
2021/04/15 05:47:05;;;;;;;8.43;6.63;;;3.50;99.90;;;;;;4989265;28;20037;-83
2021/04/15 05:49:36;;;;;;;11.15;6.85;;;3.60;99.90;;;;;;4995770;28;20514;-84
2021/04/15 05:52:20;;;;;;;9.07;6.97;;;3.60;99.90;;;;;;4993855;28;20109;-85
2021/04/15 05:54:47;;;;;;;9.88;6.95;;;3.70;99.90;;;;;;4995026;28;20033;-84
2021/04/15 05:57:16;;;;;;;11.73;7.60;;;4.00;99.90;;;;;;4995839;28;20026;-84
2021/04/15 05:59:55;;;;;;;8.48;6.60;;;4.10;99.90;;;;;;4994796;28;20049;-85
2021/04/15 06:02:23;;;;;;;10.07;7.15;;;3.90;99.90;;;;;;4978130;28;20403;-85
2021/04/15 06:04:57;;;;;;;13.55;8.10;;;4.00;99.90;;;;;;5007003;28;20048;-85
2021/04/15 06:07:26;;;;;;;11.75;8.20;;;4.30;99.90;;;;;;4994740;28;20034;-85
2021/04/15 06:09:52;;;;;;;12.27;8.18;;;3.80;99.90;;;;;;4994326;28;20029;-83
2021/04/15 06:12:33;;;;;;;12.88;8.00;;;4.10;99.90;;;;;;4996095;28;20113;-84
2021/04/15 06:15:14;;;;;;;10.57;7.43;;;4.10;99.90;;;;;;4995327;28;20018;-82
2021/04/15 06:17:49;;;;;;;9.80;7.90;;;4.20;99.90;;;;;;4990902;28;20045;-83
2021/04/15 06:20:23;;;;;;;9.38;7.93;;;4.20;99.90;;;;;;4975984;28;20387;-84
2021/04/15 06:22:55;;;;;;;12.35;9.00;;;4.30;99.90;;;;;;4994773;28;20034;-84
2021/04/15 06:25:27;;;;;;;11.05;8.75;;;4.40;99.90;;;;;;5005241;28;20037;-83
2021/04/15 06:27:54;;;;;;;11.40;8.27;;;4.50;99.90;;;;;;4995575;28;20026;-83
2021/04/15 06:30:25;;;;;;;9.40;8.10;;;4.60;99.90;;;;;;4995344;28;20030;-83
2021/04/15 06:32:56;;;;;;;10.68;7.63;;;4.40;99.90;;;;;;4994772;28;20116;-83
2021/04/15 06:35:26;;;;;;;11.00;9.85;;;4.50;99.90;;;;;;4991553;28;20026;-82
2021/04/15 06:38:08;;;;;;;9.68;8.05;;;4.50;99.90;;;;;;4993677;28;20034;-83
2021/04/15 06:41:20;;;;;;;12.57;9.00;;;4.50;99.90;;;;;;4996480;28;20121;-83
2021/04/15 06:44:13;;;;;;;10.77;8.55;;;4.60;99.90;;;;;;5004873;28;20478;-83
2021/04/15 06:47:08;;;;;;;10.50;8.77;;;4.50;99.90;;;;;;5003838;28;20050;-83
2021/04/15 06:49:45;;;;;;;10.88;9.40;;;4.50;99.90;;;;;;4995626;28;20108;-84
2021/04/15 06:52:36;;;;;;;12.07;10.30;;;4.40;99.90;;;;;;4976488;28;20091;-83
2021/04/15 06:55:10;;;;;;;10.45;9.32;;;4.40;99.90;;;;;;4994650;28;20059;-84
2021/04/15 06:57:48;;;;;;;11.82;9.70;;;4.30;99.90;;;;;;4995009;28;20030;-84
2021/04/15 07:00:39;;;;;;;10.07;9.07;;;4.50;99.90;;;;;;4977463;28;20041;-83
2021/04/15 07:03:10;;;;;;;10.63;9.52;;;4.50;99.90;;;;;;4994994;28;20041;-83
2021/04/15 07:05:50;;;;;;;11.93;9.70;;;4.70;99.90;;;;;;4991480;28;20037;-84
2021/04/15 07:08:27;;;;;;;13.30;9.48;;;4.70;99.90;;;;;;4975878;28;20022;-84
2021/04/15 07:11:25;;;;;;;11.45;9.32;;;4.70;99.90;;;;;;4993193;28;20390;-84
2021/04/15 07:14:09;;;;;;;12.00;10.05;;;4.90;99.90;;;;;;5004472;28;20504;-83
2021/04/15 07:16:54;;;;;;;11.90;9.40;;;4.90;99.90;;;;;;4995800;28;20054;-84
2021/04/15 07:19:36;;;;;;;12.82;9.13;;;4.80;99.90;;;;;;4995911;28;20030;-84
2021/04/15 07:22:47;;;;;;;10.98;9.35;;;4.90;99.90;;;;;;4996350;28;20027;-84
2021/04/15 07:25:45;;;;;;;11.93;9.65;;;5.10;99.90;;;;;;4998367;28;20039;-84
2021/04/15 07:28:48;;;;;;;11.43;9.90;;;5.00;99.90;;;;;;4997691;28;20084;-84
2021/04/15 07:31:59;;;;;;;11.65;9.05;;;5.00;99.90;;;;;;4998541;28;20034;-84
2021/04/15 07:34:52;;;;;;;13.65;9.90;;;5.30;99.90;;;;;;4988440;28;20042;-84
2021/04/15 07:37:57;;;;;;;13.88;9.93;;;5.10;99.90;;;;;;4939107;29;20035;-83
2021/04/15 07:40:37;;;;;;;13.00;9.80;;;5.10;99.90;;;;;;4937533;29;20088;-82
2021/04/15 07:43:16;;;;;;;13.57;10.23;;;5.10;99.90;;;;;;4937903;29;20459;-82
2021/04/15 07:46:05;;;;;;;11.95;9.77;;;5.30;99.90;;;;;;4932455;29;20074;-86
2021/04/15 07:48:54;;;;;;;11.52;9.70;;;5.30;99.90;;;;;;4939289;29;20613;-92
2021/04/15 07:52:07;;;;;;;10.95;9.20;;;5.60;99.90;;;;;;4936037;29;20028;-88
2021/04/15 07:54:49;;;;;;;12.95;9.82;;;5.70;99.90;;;;;;4943811;29;20055;-90
2021/04/15 07:57:30;;;;;;;11.68;10.20;;;5.90;99.90;;;;;;4946486;29;20083;-88
2021/04/15 08:00:32;;;;;;;11.07;9.60;;;6.00;99.90;;;;;;4923488;29;20133;-88
2021/04/15 08:03:22;;;;;;;10.88;9.73;;;6.10;99.90;;;;;;4938844;29;20139;-87
2021/04/15 08:05:53;;;;;;;12.25;9.73;;;6.20;99.90;;;;;;4938914;29;20070;-85
2021/04/15 08:08:40;;;;;;;12.32;9.38;;;6.20;99.90;;;;;;4934998;29;20039;-87
2021/04/15 08:11:27;;;;;;;13.00;10.02;;;6.40;99.90;;;;;;4934894;29;20028;-86
2021/04/15 08:13:58;;;;;;;11.70;8.93;;;6.60;99.90;;;;;;4965115;28;20398;-85
2021/04/15 08:16:38;;;;;;;13.05;9.48;;;6.70;99.90;;;;;;4996891;28;20043;-85
2021/04/15 08:19:16;;;;;;;13.02;9.85;;;6.90;99.90;;;;;;4997189;28;20026;-86
2021/04/15 08:21:50;;;;;;;13.32;9.68;;;6.70;99.90;;;;;;4997179;28;20026;-86
2021/04/15 08:24:33;;;;;;;11.18;9.40;;;6.60;99.90;;;;;;4995735;28;20209;-86
2021/04/15 08:27:08;;;;;;;13.20;10.35;;;6.60;99.90;;;;;;4997157;28;20034;-87
2021/04/15 08:30:06;;;;;;;10.70;9.35;;;6.60;99.90;;;;;;4996656;28;20030;-86
2021/04/15 08:33:09;;;;;;;16.60;10.27;;;6.70;99.90;;;;;;4981626;28;20022;-87
2021/04/15 08:35:49;;;;;;;11.48;9.93;;;7.10;99.90;;;;;;4983963;28;20029;-86
2021/04/15 08:38:24;;;;;;;12.50;10.27;;;7.30;99.90;;;;;;4978135;28;20030;-87
2021/04/15 08:41:43;;;;;;;12.38;10.77;;;7.00;99.90;;;;;;4991668;28;20026;-90
2021/04/15 08:44:20;;;;;;;11.02;9.73;;;7.00;99.90;;;;;;4907622;29;20037;-89
2021/04/15 08:46:46;;;;;;;12.55;9.82;;;7.10;99.90;;;;;;4893253;29;20473;-90
2021/04/15 08:49:32;;;;;;;12.60;9.90;;;7.30;99.90;;;;;;4899913;29;20083;-90
2021/04/15 08:52:24;;;;;;;13.55;9.65;;;7.20;99.90;;;;;;4898825;29;20048;-90
2021/04/15 08:55:01;;;;;;;12.90;8.70;;;7.40;99.90;;;;;;4857088;29;20479;-88
2021/04/15 08:57:54;;;;;;;12.07;9.57;;;7.70;99.90;;;;;;4858930;29;20577;-89
2021/04/15 09:00:55;;;;;;;9.85;8.85;;;7.10;99.90;;;;;;4858842;29;20480;-89
2021/04/15 09:03:41;;;;;;;13.10;9.50;;;7.50;99.90;;;;;;4843196;29;20434;-90
2021/04/15 09:06:25;;;;;;;9.80;8.80;;;7.80;99.90;;;;;;4858344;29;20049;-86
2021/04/15 09:08:59;;;;;;;12.60;9.60;;;8.30;99.90;;;;;;4858456;29;20105;-86
2021/04/15 09:11:39;;;;;;;12.07;9.00;;;7.80;99.90;;;;;;4859243;29;20581;-86
2021/04/15 09:14:20;;;;;;;12.18;9.27;;;8.40;99.90;;;;;;4857979;29;20120;-86
2021/04/15 09:17:19;;;;;;;11.80;9.18;;;8.20;99.90;;;;;;4861955;29;20141;-86
2021/04/15 09:20:02;;;;;;;9.55;8.55;;;8.30;99.90;;;;;;4941877;29;20055;-86
2021/04/15 09:22:57;;;;;;;12.90;9.20;;;8.90;99.90;;;;;;4936925;29;20127;-86
2021/04/15 09:25:40;;;;;;;13.63;9.70;;;8.80;99.90;;;;;;4936357;29;20052;-85
2021/04/15 09:28:19;;;;;;;11.38;10.13;;;9.10;99.90;;;;;;4935928;29;20055;-86
2021/04/15 09:31:11;;;;;;;11.30;10.13;;;9.00;99.90;;;;;;4943221;28;20170;-86
2021/04/15 09:33:45;;;;;;;11.98;9.40;;;8.80;99.90;;;;;;4918666;29;20055;-86
2021/04/15 09:36:19;;;;;;;10.80;9.30;;;8.90;99.90;;;;;;4918343;29;20040;-86
2021/04/15 09:39:06;;;;;;;12.77;10.07;;;8.90;99.90;;;;;;4918529;29;20115;-86
2021/04/15 09:42:13;;;;;;;10.50;8.93;;;9.10;99.90;;;;;;4916861;29;20412;-86
2021/04/15 09:44:48;;;;;;;10.48;8.90;;;9.40;99.90;;;;;;4916314;29;20048;-86
2021/04/15 09:47:51;;;;;;;10.23;8.98;;;9.70;99.90;;;;;;4899737;29;20457;-86
2021/04/15 09:50:40;;;;;;;10.80;9.65;;;9.60;99.90;;;;;;4914295;29;20551;-86
2021/04/15 09:53:46;;;;;;;10.85;9.20;;;9.80;99.90;;;;;;4914353;29;20036;-86
2021/04/15 09:56:45;;;;;;;11.38;9.25;;;9.90;99.90;;;;;;4824981;29;20046;-86
2021/04/15 09:59:34;;;;;;;12.27;9.65;;;9.70;99.90;;;;;;4839222;29;20037;-87
2021/04/15 10:02:30;;;;;;;10.85;9.63;;;9.90;99.90;;;;;;4839104;29;20176;-86
2021/04/15 10:05:03;;;;;;;10.77;9.02;;;10.10;99.90;;;;;;4838991;29;20062;-86
2021/04/15 10:07:36;;;;;;;10.10;9.02;;;10.80;99.90;;;;;;4839543;29;20106;-87
2021/04/15 10:10:01;;;;;;;10.52;9.32;;;10.50;99.90;;;;;;4846929;29;20049;-83
2021/04/15 10:12:52;;;;;;;10.80;8.38;;;10.80;99.90;;;;;;4888706;29;20500;-83
2021/04/15 10:15:41;;;;;;;10.88;7.60;;;10.70;99.90;;;;;;4893871;29;20127;-82
2021/04/15 10:18:34;;;;;;;9.10;8.13;;;11.30;99.90;;;;;;4894458;29;20041;-84
2021/04/15 10:21:29;;;;;;;8.98;8.15;;;11.90;99.90;;;;;;4894308;29;20116;-83
2021/04/15 10:24:03;;;;;;;11.57;9.18;;;12.00;99.90;;;;;;4894315;29;20553;-83
2021/04/15 10:26:31;;;;;;;9.23;8.23;;;13.60;99.90;;;;;;4893987;29;20131;-84
2021/04/15 10:29:22;;;;;;;10.02;8.30;;;17.50;99.90;;;;;;4894520;29;20044;-84
2021/04/15 10:32:08;;;;;;;9.10;7.97;;;19.40;99.90;;;;;;4859775;29;20090;-85
2021/04/15 10:34:39;;;;;;;9.48;8.48;;;22.60;99.90;;;;;;4909771;29;20160;-83
2021/04/15 10:37:20;;;;;;;8.90;8.10;;;23.20;99.90;;;;;;4909270;29;20052;-83
2021/04/15 10:40:07;;;;;;;10.70;8.57;;;26.00;99.90;;;;;;4904913;29;20037;-83
2021/04/15 10:42:55;;;;;;;13.85;9.52;;;23.30;99.90;;;;;;4901433;29;20037;-83
2021/04/15 10:45:21;;;;;;;8.10;7.35;;;22.50;99.90;;;;;;4901964;29;20045;-85
2021/04/15 10:48:08;;;;;;;8.43;7.63;;;18.90;99.90;;;;;;4902343;29;20043;-83
2021/04/15 10:50:52;;;;;;;9.52;7.03;;;18.60;99.90;;;;;;4900669;29;20068;-86
2021/04/15 10:53:35;;;;;;;9.55;8.55;;;23.70;99.90;;;;;;4897858;29;20032;-87
2021/04/15 10:56:09;;;;;;;8.07;7.28;;;26.60;99.90;;;;;;4904363;29;20045;-84
2021/04/15 10:58:42;;;;;;;8.20;7.45;;;28.00;99.90;;;;;;4898460;29;20039;-83
2021/04/15 11:01:25;;;;;;;7.82;7.13;;;26.90;99.90;;;;;;4908278;29;20134;-83
2021/04/15 11:03:52;;;;;;;8.63;7.72;;;27.20;99.90;;;;;;4908278;29;20020;-84
2021/04/15 11:06:38;;;;;;;10.70;7.80;;;27.70;99.90;;;;;;4908768;29;20048;-83
2021/04/15 11:09:28;;;;;;;8.75;7.18;;;27.70;99.90;;;;;;4956684;28;20030;-83
2021/04/15 11:12:14;;;;;;;8.50;7.30;;;28.80;99.90;;;;;;4992192;28;20045;-82
2021/04/15 11:14:43;;;;;;;8.00;6.85;;;29.80;99.90;;;;;;5005088;28;20034;-84
2021/04/15 11:17:17;;;;;;;8.45;7.00;;;23.30;99.90;;;;;;4988545;28;20134;-84
2021/04/15 11:19:43;;;;;;;7.65;6.95;;;19.50;99.90;;;;;;5004078;28;20026;-84
2021/04/15 11:22:20;;;;;;;8.27;7.53;;;21.70;99.90;;;;;;4994327;28;20026;-84
2021/04/15 11:24:46;;;;;;;8.05;7.25;;;23.90;99.90;;;;;;4992968;28;20045;-84
2021/04/15 11:27:13;;;;;;;7.55;6.85;;;22.90;99.90;;;;;;4993747;28;20069;-85
2021/04/15 11:29:44;;;;;;;7.97;7.28;;;26.30;99.90;;;;;;4990366;28;20145;-84
2021/04/15 11:32:28;;;;;;;7.85;7.13;;;28.30;99.90;;;;;;5006247;28;20451;-84
2021/04/15 11:35:17;;;;;;;7.93;7.13;;;26.10;99.90;;;;;;4999551;28;20150;-84
2021/04/15 11:37:45;;;;;;;11.85;7.65;;;23.10;99.90;;;;;;4993450;28;20473;-83
2021/04/15 11:40:36;;;;;;;9.18;6.80;;;23.60;99.90;;;;;;4990374;28;20026;-85
2021/04/15 11:43:25;;;;;;;8.55;6.82;;;27.20;99.90;;;;;;4989175;28;20058;-85
2021/04/15 11:45:53;;;;;;;8.38;7.25;;;27.90;99.90;;;;;;4984962;28;20093;-84
2021/04/15 11:48:24;;;;;;;8.68;6.95;;;29.00;99.90;;;;;;4993052;28;20022;-84
2021/04/15 11:51:08;;;;;;;7.40;6.70;;;30.30;99.90;;;;;;4987569;28;20113;-84
2021/04/15 11:53:39;;;;;;;7.25;6.55;;;29.10;99.90;;;;;;4981054;28;20037;-85
2021/04/15 11:56:31;;;;;;;7.30;6.55;;;29.00;99.90;;;;;;4994021;28;20042;-85
2021/04/15 11:59:16;;;;;;;7.22;6.63;;;28.60;99.90;;;;;;4987825;28;20442;-83
2021/04/15 12:01:43;;;;;;;7.60;6.90;;;25.10;99.90;;;;;;5008722;28;20061;-85
2021/04/15 12:04:14;;;;;;;7.03;6.43;;;29.10;99.90;;;;;;4992537;28;20037;-84
2021/04/15 12:06:44;;;;;;;7.28;6.55;;;26.10;99.90;;;;;;4994425;28;20518;-84
2021/04/15 12:09:15;;;;;;;6.80;6.30;;;27.20;99.90;;;;;;4998593;28;20022;-84
2021/04/15 12:11:58;;;;;;;7.70;6.93;;;30.20;99.90;;;;;;5004463;28;20477;-83
2021/04/15 12:14:25;;;;;;;7.07;6.40;;;31.40;99.90;;;;;;4984765;28;20510;-84
2021/04/15 12:17:10;;;;;;;6.80;6.20;;;32.70;99.90;;;;;;4994921;28;20054;-84
2021/04/15 12:19:55;;;;;;;6.90;6.10;;;33.70;99.90;;;;;;4995930;28;20034;-84
2021/04/15 12:22:59;;;;;;;6.88;6.28;;;26.60;99.90;;;;;;5002094;28;20626;-86
2021/04/15 12:25:31;;;;;;;7.47;6.72;;;22.70;99.90;;;;;;4985197;28;20046;-83
2021/04/15 12:28:19;;;;;;;7.20;6.50;;;21.60;99.90;;;;;;4990082;28;20443;-86
2021/04/15 12:30:44;;;;;;;7.10;6.30;;;24.20;99.90;;;;;;4999358;28;20068;-86
2021/04/15 12:33:20;;;;;;;6.78;6.18;;;24.60;99.90;;;;;;4997253;28;20046;-85
2021/04/15 12:35:54;;;;;;;7.00;6.30;;;26.80;99.90;;;;;;4991045;28;20034;-83
2021/04/15 12:38:23;;;;;;;6.53;5.65;;;28.50;99.90;;;;;;4989639;28;20178;-85
2021/04/15 12:40:51;;;;;;;6.95;6.35;;;30.50;99.90;;;;;;4996943;28;20136;-84
2021/04/15 12:43:27;;;;;;;8.02;6.30;;;29.80;99.90;;;;;;5001446;28;20088;-86
2021/04/15 12:46:00;;;;;;;6.85;6.28;;;28.30;99.90;;;;;;4990474;28;20054;-87
2021/04/15 12:48:55;;;;;;;8.15;6.03;;;25.60;99.90;;;;;;4993695;28;20113;-86
2021/04/15 12:51:29;;;;;;;6.65;6.15;;;23.50;99.90;;;;;;4994329;28;20403;-87
2021/04/15 12:54:01;;;;;;;7.13;6.50;;;21.10;99.90;;;;;;4992195;28;20081;-86
2021/04/15 12:56:47;;;;;;;6.68;5.97;;;20.20;99.90;;;;;;5000136;28;20034;-86
2021/04/15 12:59:21;;;;;;;6.70;6.07;;;19.70;99.90;;;;;;4988862;28;20022;-86
2021/04/15 13:01:47;;;;;;;6.32;5.82;;;20.70;99.90;;;;;;4994348;28;20491;-87
2021/04/15 13:04:20;;;;;;;6.78;6.07;;;24.60;99.90;;;;;;4995603;28;20447;-86
2021/04/15 13:07:21;;;;;;;7.35;6.28;;;22.90;99.90;;;;;;4990403;28;20538;-85
2021/04/15 13:09:49;;;;;;;6.45;5.85;;;21.30;99.90;;;;;;4985773;28;20085;-87
2021/04/15 13:12:21;;;;;;;8.43;6.68;;;20.70;99.90;;;;;;4991829;28;20081;-86
2021/04/15 13:14:55;;;;;;;6.68;5.97;;;19.00;99.90;;;;;;4989260;28;20057;-87
2021/04/15 13:17:35;;;;;;;7.30;6.55;;;18.30;99.90;;;;;;4990040;28;20112;-87
2021/04/15 13:20:01;;;;;;;6.55;6.00;;;17.70;99.90;;;;;;4997729;28;20026;-87
2021/04/15 13:22:34;;;;;;;6.60;6.00;;;17.80;99.90;;;;;;4994108;28;20038;-86
2021/04/15 13:25:00;;;;;;;5.53;5.03;;;18.20;99.90;;;;;;4998407;28;20034;-87
2021/04/15 13:27:35;;;;;;;6.40;5.80;;;19.90;99.90;;;;;;4994432;28;20028;-86
2021/04/15 13:30:25;;;;;;;5.78;5.28;;;22.00;99.90;;;;;;4994492;28;20514;-87
2021/04/15 13:33:07;;;;;;;6.30;5.70;;;20.30;99.90;;;;;;4994199;28;20565;-87
2021/04/15 13:35:44;;;;;;;6.05;5.45;;;19.40;99.90;;;;;;4988127;28;20022;-87
2021/04/15 13:40:58;;;;;;;7.53;5.60;;;17.70;99.90;;;;;;4990490;28;20446;-87
2021/04/15 13:43:58;;;;;;;7.18;5.32;;;18.00;99.90;;;;;;5003298;28;20036;-87
2021/04/15 13:46:30;;;;;;;5.63;5.10;;;17.70;99.90;;;;;;4993494;28;20088;-86
2021/04/15 13:49:22;;;;;;;5.90;5.30;;;17.00;99.90;;;;;;4993870;28;20035;-86
2021/04/15 13:51:48;;;;;;;8.93;5.30;;;16.30;99.90;;;;;;4999344;28;20026;-84
2021/04/15 13:54:14;;;;;;;5.63;5.13;;;16.00;99.90;;;;;;4999240;28;20402;-87